Mc Henry, North Dakota
Current Conditions -  °F | °C
As of 10:35 PM on Friday 24 Oct 2014 (Local Time) from K46D Reporting Station
Clear Clear  
Wind Chill: 50°   Ceiling: Unl
Heat Index: 50°   Visibility: 10mi
Dew Point: 32°   Wind: 14mph
Humidity: 50%   Direction: 280°W
Pressure: 29.97"   Gusts: NA
Location:  47.5438°N, 98.5641°W
Report Text: K46D 250335Z AUTO 28012KT 10SM CLR 10/00 A2997 RMK AO2
Loading
Personal Weather Stations






























Interactive Weather Map
Tropical Storm Tracking
New forecast layout! Learn more

10-Day Weather Forecast

Advertisements
Track Severe Weather on mobile